Time;durP1;ratioP1;P1;durP2;ratioP2;P2;SDS_P1;SDS_P2;PMS_P1;PMS_P2;Temp;Humidity;BMP_temperature;BMP_pressure;BME280_temperature;BME280_humidity;BME280_pressure;Samples;Min_cycle;Max_cycle;Signal;HPM_P1;HPM_P2
2022/03/18 00:00:54;;;;;;;134.63;68.77;;;12.70;53.90;;;;;;4984586;28;20611;-72
2022/03/18 00:03:20;;;;;;;140.23;71.70;;;12.70;53.40;;;;;;4993548;28;20288;-72
2022/03/18 00:05:46;;;;;;;143.47;73.87;;;12.80;54.00;;;;;;4980563;28;20680;-72
2022/03/18 00:08:12;;;;;;;141.13;72.77;;;12.90;53.10;;;;;;4987314;28;20516;-72
2022/03/18 00:10:38;;;;;;;138.87;70.87;;;12.90;53.20;;;;;;4982373;28;20280;-72
2022/03/18 00:13:04;;;;;;;133.73;69.87;;;12.20;55.10;;;;;;4991545;28;20678;-72
2022/03/18 00:15:30;;;;;;;144.57;72.30;;;12.30;56.20;;;;;;4982610;28;20793;-72
2022/03/18 00:17:56;;;;;;;138.07;71.57;;;12.10;57.40;;;;;;4984955;28;20516;-72
2022/03/18 00:20:23;;;;;;;140.40;69.53;;;12.10;57.90;;;;;;4984460;28;20210;-72
2022/03/18 00:22:49;;;;;;;130.43;67.53;;;12.00;57.30;;;;;;4984066;28;20479;-72
2022/03/18 00:25:17;;;;;;;138.70;68.97;;;11.90;60.40;;;;;;4985417;28;20455;-72
2022/03/18 00:27:44;;;;;;;131.50;68.97;;;11.90;58.90;;;;;;4989247;28;20870;-72
2022/03/18 00:30:11;;;;;;;134.63;68.83;;;11.90;59.20;;;;;;4979969;28;20448;-72
2022/03/18 00:32:41;;;;;;;145.27;71.83;;;11.80;58.70;;;;;;4990532;28;20484;-72
2022/03/18 00:35:08;;;;;;;136.73;71.57;;;12.00;58.70;;;;;;4981695;28;20779;-72
2022/03/18 00:37:38;;;;;;;133.13;65.90;;;12.30;57.60;;;;;;4983882;28;20444;-72
2022/03/18 00:40:05;;;;;;;126.03;65.20;;;12.30;57.00;;;;;;4980467;28;20462;-72
2022/03/18 00:42:32;;;;;;;139.80;69.13;;;11.70;61.20;;;;;;4979413;28;20523;-72
2022/03/18 00:45:02;;;;;;;139.97;70.50;;;12.10;58.70;;;;;;4985212;28;20429;-72
2022/03/18 00:52:56;;;;;;;139.43;67.30;;;12.80;53.70;;;;;;4989644;28;20452;-72
2022/03/18 00:55:22;;;;;;;125.80;66.70;;;12.60;53.90;;;;;;4987120;28;20433;-72
2022/03/18 00:57:48;;;;;;;141.37;68.77;;;12.40;54.90;;;;;;4990893;28;20196;-72
2022/03/18 01:00:14;;;;;;;135.50;66.10;;;12.30;55.60;;;;;;4984708;28;20217;-72
2022/03/18 01:02:40;;;;;;;133.00;66.27;;;12.10;57.20;;;;;;4984886;28;20504;-72
2022/03/18 01:05:06;;;;;;;133.97;69.30;;;11.90;59.50;;;;;;4990809;28;20462;-72
2022/03/18 01:07:32;;;;;;;128.33;61.13;;;12.20;58.40;;;;;;4972435;28;20191;-71
2022/03/18 01:09:58;;;;;;;133.63;65.87;;;12.20;57.20;;;;;;4988386;28;20449;-72
2022/03/18 01:12:24;;;;;;;125.83;62.97;;;12.30;56.30;;;;;;4991329;28;20241;-72
2022/03/18 01:14:50;;;;;;;127.67;66.70;;;12.30;55.40;;;;;;4983670;28;20921;-72
2022/03/18 01:17:15;;;;;;;125.17;58.77;;;12.30;55.20;;;;;;4983065;28;20462;-72
2022/03/18 01:19:41;;;;;;;115.43;57.67;;;12.30;55.30;;;;;;4979305;28;20576;-72
2022/03/18 01:22:10;;;;;;;114.67;54.13;;;12.20;56.90;;;;;;4972872;28;20264;-72
2022/03/18 01:24:37;;;;;;;115.97;57.70;;;11.90;57.00;;;;;;4983535;28;20924;-72
2022/03/18 01:27:04;;;;;;;107.50;54.90;;;12.20;58.70;;;;;;4983459;28;20424;-72
2022/03/18 01:29:29;;;;;;;108.17;54.67;;;11.90;58.20;;;;;;4986113;28;20453;-72
2022/03/18 01:31:55;;;;;;;103.97;52.23;;;12.10;57.30;;;;;;4984654;28;20429;-72
2022/03/18 01:34:21;;;;;;;98.97;51.67;;;12.10;57.00;;;;;;4986229;28;20608;-72
2022/03/18 01:36:46;;;;;;;94.17;48.77;;;12.20;56.30;;;;;;4991790;28;20178;-72
2022/03/18 01:39:12;;;;;;;95.37;51.07;;;12.30;55.80;;;;;;4990974;28;20218;-72
2022/03/18 01:41:39;;;;;;;95.67;49.60;;;12.30;55.00;;;;;;4989461;28;20186;-72
2022/03/18 01:44:09;;;;;;;95.67;50.63;;;11.60;59.10;;;;;;4988014;28;20840;-72
2022/03/18 01:46:37;;;;;;;99.77;49.10;;;11.80;59.10;;;;;;4982671;28;20435;-72
2022/03/18 01:49:06;;;;;;;93.60;49.20;;;11.80;58.60;;;;;;4983381;28;20892;-72
2022/03/18 01:51:34;;;;;;;92.87;48.27;;;12.10;56.40;;;;;;4988633;28;20423;-71
2022/03/18 01:56:44;;;;;;;100.97;48.60;;;12.30;54.90;;;;;;4983862;28;20412;-72
2022/03/18 01:59:13;;;;;;;94.70;46.53;;;12.80;53.60;;;;;;4988082;28;20437;-72
2022/03/18 02:01:39;;;;;;;88.90;43.67;;;12.40;53.70;;;;;;4984360;28;20662;-72
2022/03/18 02:04:05;;;;;;;87.90;44.17;;;12.10;54.30;;;;;;4976483;28;20460;-72
2022/03/18 02:06:32;;;;;;;83.83;42.50;;;12.00;56.40;;;;;;4991033;28;20663;-72
2022/03/18 02:08:58;;;;;;;84.47;44.60;;;11.60;57.60;;;;;;4987406;28;20452;-72
2022/03/18 02:11:25;;;;;;;84.83;45.80;;;11.60;60.00;;;;;;4992089;28;20441;-72
2022/03/18 02:13:52;;;;;;;84.70;44.00;;;11.80;58.80;;;;;;4992927;28;20508;-72
2022/03/18 02:16:18;;;;;;;81.00;43.90;;;11.80;57.00;;;;;;4987418;28;20425;-72
2022/03/18 02:18:44;;;;;;;80.90;43.40;;;11.90;57.60;;;;;;4985845;28;20449;-72
2022/03/18 02:21:14;;;;;;;73.63;40.60;;;12.00;56.20;;;;;;4984102;28;20425;-72
2022/03/18 02:23:40;;;;;;;90.93;42.77;;;10.90;64.80;;;;;;4989687;28;20248;-72
2022/03/18 02:26:05;;;;;;;83.80;43.93;;;11.40;61.80;;;;;;4988396;28;20476;-71
2022/03/18 02:28:31;;;;;;;82.63;42.60;;;12.00;57.30;;;;;;4993559;28;20413;-71
2022/03/18 02:30:57;;;;;;;80.87;41.73;;;12.20;55.70;;;;;;4978021;28;20182;-72
2022/03/18 02:33:22;;;;;;;72.77;40.50;;;12.20;54.80;;;;;;4987326;28;20189;-71
2022/03/18 02:35:53;;;;;;;76.13;40.80;;;11.80;57.20;;;;;;4977461;28;20236;-72
2022/03/18 02:38:19;;;;;;;81.63;40.57;;;12.10;56.30;;;;;;4985804;28;20236;-71
2022/03/18 02:40:45;;;;;;;76.40;40.57;;;12.20;55.40;;;;;;4993143;28;20421;-72
2022/03/18 02:43:10;;;;;;;72.33;38.40;;;12.40;54.20;;;;;;4985003;28;20198;-71
2022/03/18 02:45:36;;;;;;;66.57;38.10;;;11.20;60.70;;;;;;4983407;28;20648;-71
2022/03/18 02:48:02;;;;;;;67.90;37.23;;;11.20;62.00;;;;;;4993217;28;20185;-71
2022/03/18 02:50:28;;;;;;;70.70;38.33;;;11.50;60.00;;;;;;4994026;28;20586;-71
2022/03/18 02:52:53;;;;;;;67.03;38.10;;;11.80;57.70;;;;;;4992719;28;20217;-71
2022/03/18 02:55:19;;;;;;;79.87;38.07;;;12.10;55.80;;;;;;4987431;28;20182;-71
2022/03/18 02:57:45;;;;;;;80.43;38.73;;;12.00;55.30;;;;;;4978152;28;20186;-72
2022/03/18 03:00:11;;;;;;;72.63;37.60;;;12.10;54.80;;;;;;4987992;28;20204;-71
2022/03/18 03:02:36;;;;;;;69.13;36.90;;;12.00;54.60;;;;;;4988065;28;20205;-71
2022/03/18 03:08:00;;;;;;;71.28;36.78;;;11.70;55.50;;;;;;4982236;28;20294;-72
2022/03/18 03:10:32;;;;;;;63.00;36.33;;;11.80;56.50;;;;;;4993014;28;20198;-72
2022/03/18 03:13:01;;;;;;;63.60;34.67;;;11.50;57.60;;;;;;4993097;28;20436;-71
2022/03/18 03:15:27;;;;;;;66.50;36.37;;;11.80;56.50;;;;;;4993502;28;20457;-71
2022/03/18 03:17:53;;;;;;;76.22;38.13;;;11.70;55.50;;;;;;4985440;28;20436;-71
2022/03/18 03:20:19;;;;;;;64.07;35.03;;;11.50;57.50;;;;;;4983923;28;20210;-71
2022/03/18 03:22:44;;;;;;;66.93;36.40;;;11.60;57.40;;;;;;4993212;28;20821;-71
2022/03/18 03:25:10;;;;;;;73.93;36.73;;;11.90;54.90;;;;;;4982157;28;20425;-71
2022/03/18 03:27:36;;;;;;;72.53;36.67;;;12.10;54.10;;;;;;4990099;28;20182;-71
2022/03/18 03:30:06;;;;;;;65.03;36.00;;;12.20;53.40;;;;;;4981613;28;20234;-71
2022/03/18 03:32:32;;;;;;;64.93;35.23;;;12.00;53.80;;;;;;4985581;28;20186;-71
2022/03/18 03:34:58;;;;;;;65.87;35.50;;;11.60;55.80;;;;;;4992869;28;20440;-71
2022/03/18 03:37:25;;;;;;;65.70;37.07;;;11.80;55.50;;;;;;4982924;28;20513;-71
2022/03/18 03:39:51;;;;;;;64.80;35.13;;;11.90;55.30;;;;;;4982946;28;20458;-71
2022/03/18 03:42:18;;;;;;;66.37;35.33;;;12.00;54.70;;;;;;4983565;28;20458;-72
2022/03/18 03:44:44;;;;;;;71.85;35.13;;;11.90;54.00;;;;;;4985424;28;20178;-71
2022/03/18 03:47:10;;;;;;;60.87;33.97;;;12.10;52.50;;;;;;4993193;28;20260;-72
2022/03/18 03:49:35;;;;;;;71.70;35.70;;;11.90;54.30;;;;;;4992479;28;20974;-71
2022/03/18 03:52:01;;;;;;;69.47;35.97;;;12.00;54.40;;;;;;4986556;28;20309;-72
2022/03/18 03:54:27;;;;;;;74.77;36.70;;;12.00;53.30;;;;;;4990569;28;20174;-72
2022/03/18 03:56:54;;;;;;;67.27;35.90;;;11.80;53.00;;;;;;4992432;28;20185;-71
2022/03/18 03:59:20;;;;;;;69.80;35.13;;;11.80;54.30;;;;;;4984334;28;20447;-71
2022/03/18 04:01:46;;;;;;;67.30;34.60;;;11.90;54.10;;;;;;4984270;28;20424;-71
2022/03/18 04:04:11;;;;;;;60.03;32.67;;;11.90;53.60;;;;;;4986203;28;20799;-71
2022/03/18 04:06:37;;;;;;;58.77;34.57;;;11.40;56.10;;;;;;4989145;28;20189;-71
2022/03/18 04:09:04;;;;;;;64.50;36.10;;;11.40;56.70;;;;;;4981603;28;20630;-71
2022/03/18 04:11:30;;;;;;;62.88;35.58;;;11.20;57.80;;;;;;4988684;28;20182;-71
2022/03/18 04:13:56;;;;;;;72.40;36.53;;;11.40;57.10;;;;;;4981395;28;20201;-71
2022/03/18 04:16:21;;;;;;;70.13;36.57;;;11.70;55.50;;;;;;4980058;28;20421;-71
2022/03/18 04:18:47;;;;;;;74.17;37.57;;;11.80;54.70;;;;;;4992069;28;20883;-71
2022/03/18 04:21:14;;;;;;;68.00;35.87;;;11.80;53.80;;;;;;4984572;28;20189;-71
2022/03/18 04:23:40;;;;;;;63.13;34.77;;;12.30;54.20;;;;;;4989307;28;20490;-71
2022/03/18 04:26:06;;;;;;;65.70;36.40;;;11.90;53.60;;;;;;4985881;28;20483;-71
2022/03/18 04:28:32;;;;;;;68.23;37.10;;;11.80;53.80;;;;;;4976586;28;20418;-71
2022/03/18 04:30:57;;;;;;;68.43;35.60;;;11.80;53.40;;;;;;5000627;28;20201;-71
2022/03/18 04:33:23;;;;;;;66.73;35.70;;;11.80;53.60;;;;;;4986052;28;20209;-71
2022/03/18 04:35:49;;;;;;;66.50;36.90;;;11.80;53.70;;;;;;4990330;28;20194;-71
2022/03/18 04:38:14;;;;;;;68.90;36.87;;;11.70;54.10;;;;;;4985434;28;20556;-71
2022/03/18 04:40:40;;;;;;;68.57;35.63;;;11.90;53.80;;;;;;4980864;28;20591;-71
2022/03/18 04:43:05;;;;;;;71.80;35.40;;;12.20;51.80;;;;;;4980771;28;20202;-72
2022/03/18 04:45:31;;;;;;;70.10;36.37;;;12.30;50.80;;;;;;4984232;28;20545;-71
2022/03/18 04:47:57;;;;;;;69.97;37.00;;;12.10;51.80;;;;;;4982088;28;20190;-72
2022/03/18 04:50:23;;;;;;;71.90;35.30;;;12.10;52.90;;;;;;4983855;28;20201;-72
2022/03/18 04:52:49;;;;;;;70.67;36.30;;;12.10;52.00;;;;;;4983317;28;20671;-72
2022/03/18 04:55:14;;;;;;;66.70;36.73;;;12.20;51.30;;;;;;4988604;28;20464;-72
2022/03/18 04:57:40;;;;;;;66.90;35.93;;;12.30;51.70;;;;;;4984635;28;20334;-72
2022/03/18 05:00:07;;;;;;;66.27;36.07;;;12.30;50.70;;;;;;4981146;28;20702;-72
2022/03/18 05:02:35;;;;;;;70.83;35.97;;;11.90;51.70;;;;;;4986275;28;20241;-71
2022/03/18 05:05:02;;;;;;;67.83;37.20;;;12.10;51.70;;;;;;4986574;28;20421;-71
2022/03/18 05:07:28;;;;;;;66.57;36.88;;;12.10;52.30;;;;;;4990637;28;20915;-72
2022/03/18 05:09:54;;;;;;;71.17;37.70;;;11.50;54.30;;;;;;4983826;28;20206;-71
2022/03/18 05:12:20;;;;;;;66.63;36.40;;;11.60;53.40;;;;;;4983651;28;20576;-71
2022/03/18 05:14:46;;;;;;;70.53;38.37;;;11.40;54.50;;;;;;4985079;28;20512;-72
2022/03/18 05:17:12;;;;;;;68.60;37.13;;;11.70;53.60;;;;;;4988633;28;20186;-71
2022/03/18 05:19:39;;;;;;;71.23;38.43;;;11.80;53.40;;;;;;4991152;28;20233;-71
2022/03/18 05:22:06;;;;;;;68.27;37.10;;;11.90;54.00;;;;;;4989843;28;20999;-72
2022/03/18 05:24:32;;;;;;;68.30;37.90;;;11.80;52.00;;;;;;4983386;28;20420;-71
2022/03/18 05:26:58;;;;;;;71.17;36.77;;;11.90;51.70;;;;;;4984423;28;20429;-71
2022/03/18 05:29:27;;;;;;;76.70;39.23;;;11.80;52.60;;;;;;4983458;28;20973;-71
2022/03/18 05:31:53;;;;;;;65.53;36.08;;;11.90;52.30;;;;;;4981148;28;20429;-71
2022/03/18 05:34:19;;;;;;;67.20;38.30;;;11.50;53.70;;;;;;4982566;28;20185;-71
2022/03/18 05:36:46;;;;;;;73.83;38.00;;;11.50;54.30;;;;;;4985413;28;20425;-71
2022/03/18 05:39:12;;;;;;;81.10;37.77;;;11.90;51.80;;;;;;4984032;28;20265;-71
2022/03/18 05:41:38;;;;;;;71.33;37.43;;;11.70;52.50;;;;;;4984388;28;20432;-71
2022/03/18 05:44:05;;;;;;;71.10;38.83;;;11.80;52.40;;;;;;4986245;28;20555;-71
2022/03/18 05:46:30;;;;;;;76.70;37.92;;;11.70;52.40;;;;;;4988702;28;20425;-71
2022/03/18 05:48:56;;;;;;;70.07;38.87;;;11.80;51.70;;;;;;4985790;28;20277;-71
2022/03/18 05:51:21;;;;;;;75.17;41.60;;;11.70;52.10;;;;;;4985476;28;20173;-72
2022/03/18 05:53:47;;;;;;;75.43;41.10;;;11.90;52.10;;;;;;4985974;28;20815;-71
2022/03/18 05:58:58;;;;;;;80.33;40.27;;;12.00;50.40;;;;;;4997334;28;20248;-71
2022/03/18 06:01:24;;;;;;;79.90;43.40;;;11.60;52.90;;;;;;4989213;28;20417;-72
2022/03/18 06:03:50;;;;;;;81.70;43.50;;;11.70;52.30;;;;;;4990822;28;20472;-71
2022/03/18 06:06:15;;;;;;;86.10;44.40;;;12.00;51.70;;;;;;4976171;28;20170;-72
2022/03/18 06:14:10;;;;;;;82.47;39.97;;;12.10;50.50;;;;;;4980906;28;20228;-71
2022/03/18 06:16:37;;;;;;;79.07;39.90;;;12.00;49.80;;;;;;4985086;28;20424;-71
2022/03/18 06:19:03;;;;;;;79.33;41.57;;;11.70;50.80;;;;;;4983466;28;20257;-71
2022/03/18 06:21:28;;;;;;;80.67;40.83;;;11.50;53.70;;;;;;4983916;28;20425;-72
2022/03/18 06:23:54;;;;;;;77.20;40.23;;;11.50;52.80;;;;;;4994181;28;20966;-71
2022/03/18 06:26:20;;;;;;;75.40;39.03;;;11.40;53.40;;;;;;4986592;28;20174;-72
2022/03/18 06:28:45;;;;;;;79.87;40.37;;;11.40;53.40;;;;;;4985748;28;20210;-71
2022/03/18 06:31:11;;;;;;;78.30;39.67;;;11.50;53.80;;;;;;4988205;28;20177;-71
2022/03/18 06:33:43;;;;;;;100.60;43.50;;;11.60;53.40;;;;;;4991454;28;20643;-71
2022/03/18 06:36:13;;;;;;;82.57;41.33;;;11.80;51.30;;;;;;4989548;28;20698;-72
2022/03/18 06:38:39;;;;;;;73.13;40.35;;;11.70;52.50;;;;;;4992386;28;20236;-71
2022/03/18 06:41:05;;;;;;;83.37;42.30;;;11.50;52.80;;;;;;4992940;28;20750;-71
2022/03/18 06:43:30;;;;;;;83.83;42.17;;;11.40;53.80;;;;;;4986680;28;20498;-71
2022/03/18 06:45:56;;;;;;;75.20;40.70;;;11.60;52.70;;;;;;4980945;28;20449;-72
2022/03/18 06:48:22;;;;;;;81.93;39.67;;;11.90;51.40;;;;;;4974531;28;20663;-71
2022/03/18 06:50:48;;;;;;;81.57;42.13;;;11.80;51.70;;;;;;4983280;28;20179;-71
2022/03/18 06:53:14;;;;;;;84.00;40.03;;;12.20;52.10;;;;;;4992057;28;20198;-71
2022/03/18 06:55:39;;;;;;;81.70;41.80;;;12.00;51.00;;;;;;4986138;28;20453;-71
2022/03/18 06:58:05;;;;;;;81.63;41.57;;;12.10;49.00;;;;;;4985053;28;20197;-72
2022/03/18 07:00:30;;;;;;;81.70;41.83;;;12.10;50.10;;;;;;4991603;28;20280;-72
2022/03/18 07:02:56;;;;;;;76.53;40.03;;;12.10;50.50;;;;;;4990731;28;20225;-72
2022/03/18 07:05:22;;;;;;;84.30;43.67;;;12.10;50.00;;;;;;4979519;28;20178;-71
2022/03/18 07:07:50;;;;;;;91.43;42.20;;;11.80;50.20;;;;;;4985656;28;20229;-71
2022/03/18 07:10:16;;;;;;;86.10;42.65;;;11.60;52.40;;;;;;4986022;28;20237;-71
2022/03/18 07:12:42;;;;;;;87.83;43.63;;;11.90;51.00;;;;;;4985660;28;20605;-72
2022/03/18 07:15:08;;;;;;;88.27;44.53;;;12.00;50.40;;;;;;4976736;28;20182;-71
2022/03/18 07:20:18;;;;;;;95.37;44.37;;;11.90;50.20;;;;;;4992966;28;20487;-71
2022/03/18 07:22:44;;;;;;;89.30;42.77;;;12.20;49.30;;;;;;4985174;28;20973;-72
2022/03/18 07:25:10;;;;;;;92.80;43.60;;;12.10;49.90;;;;;;4975704;28;20554;-71
2022/03/18 07:27:36;;;;;;;90.30;44.83;;;12.00;49.50;;;;;;4994397;28;20417;-71
2022/03/18 07:30:05;;;;;;;77.00;42.53;;;12.10;50.10;;;;;;4994351;28;21172;-71
2022/03/18 07:32:31;;;;;;;82.07;42.47;;;11.60;50.10;;;;;;4988671;28;20484;-71
2022/03/18 07:34:57;;;;;;;82.30;44.00;;;11.80;50.20;;;;;;4981872;28;20429;-71
2022/03/18 07:37:22;;;;;;;93.00;45.90;;;12.10;50.00;;;;;;4981980;28;20194;-71
2022/03/18 07:39:48;;;;;;;86.13;43.80;;;12.00;50.40;;;;;;4981902;28;20715;-72
2022/03/18 07:42:14;;;;;;;89.40;43.67;;;12.00;50.40;;;;;;4983208;28;20209;-71
2022/03/18 07:44:39;;;;;;;80.23;42.93;;;11.90;50.30;;;;;;4984894;28;20189;-71
2022/03/18 07:47:05;;;;;;;94.50;45.10;;;11.90;49.80;;;;;;4990838;28;20206;-71
2022/03/18 07:49:32;;;;;;;87.00;45.20;;;12.00;50.40;;;;;;4992596;28;20205;-71
2022/03/18 07:51:57;;;;;;;86.70;44.73;;;12.10;50.40;;;;;;4985035;28;20899;-71
2022/03/18 07:54:23;;;;;;;86.37;45.40;;;12.30;48.70;;;;;;4990493;28;20483;-72
2022/03/18 07:56:50;;;;;;;86.90;45.77;;;12.20;48.10;;;;;;4986469;28;20198;-71
2022/03/18 07:59:16;;;;;;;85.70;46.13;;;12.20;48.30;;;;;;4983929;28;20690;-71
2022/03/18 08:01:41;;;;;;;90.77;45.93;;;12.20;48.40;;;;;;4988417;28;20422;-71
2022/03/18 08:04:09;;;;;;;94.27;46.07;;;12.10;50.20;;;;;;4987245;28;20197;-71
2022/03/18 08:06:35;;;;;;;90.40;44.20;;;12.00;50.20;;;;;;4991291;28;20174;-71
2022/03/18 08:09:00;;;;;;;87.83;47.07;;;12.10;49.30;;;;;;4983174;28;20441;-71
2022/03/18 08:11:26;;;;;;;88.33;47.70;;;12.30;47.70;;;;;;4988708;28;20180;-71
2022/03/18 08:13:52;;;;;;;89.40;46.90;;;12.20;46.80;;;;;;4985538;28;20182;-71
2022/03/18 08:16:18;;;;;;;82.53;46.60;;;12.10;48.40;;;;;;4991620;28;20875;-71
2022/03/18 08:18:43;;;;;;;90.73;45.70;;;12.00;48.00;;;;;;4988692;28;20646;-74
2022/03/18 08:21:09;;;;;;;103.57;46.43;;;11.70;47.60;;;;;;4989835;28;20441;-72
2022/03/18 08:23:35;;;;;;;90.73;46.93;;;11.70;50.40;;;;;;4987678;28;20205;-72
2022/03/18 08:26:01;;;;;;;79.07;44.27;;;12.20;48.30;;;;;;4988591;28;20672;-72
2022/03/18 08:28:27;;;;;;;84.87;46.20;;;12.00;47.20;;;;;;4986937;28;20425;-72
2022/03/18 08:30:53;;;;;;;92.17;47.47;;;12.30;47.20;;;;;;4988529;28;20489;-72
2022/03/18 08:33:19;;;;;;;91.20;46.10;;;12.50;46.50;;;;;;4990332;28;20182;-74
2022/03/18 08:35:45;;;;;;;80.63;43.80;;;12.40;46.10;;;;;;4986540;28;20179;-72
2022/03/18 08:38:11;;;;;;;77.17;43.90;;;12.20;47.80;;;;;;4974502;28;20435;-73
2022/03/18 08:40:37;;;;;;;87.80;46.00;;;11.70;48.20;;;;;;4992002;28;20218;-70
2022/03/18 08:43:05;;;;;;;86.63;48.47;;;11.60;49.20;;;;;;4976872;28;20206;-70
2022/03/18 08:45:32;;;;;;;94.23;47.37;;;11.80;49.40;;;;;;4979750;28;20927;-70
2022/03/18 08:47:58;;;;;;;81.20;44.40;;;12.40;46.60;;;;;;4983708;28;20862;-70
2022/03/18 08:50:24;;;;;;;87.63;45.43;;;12.20;45.70;;;;;;4981060;28;20521;-71
2022/03/18 08:52:53;;;;;;;88.53;46.53;;;12.30;45.80;;;;;;4986467;28;20179;-71
2022/03/18 08:55:20;;;;;;;78.17;43.53;;;12.50;44.30;;;;;;4999622;28;20429;-71
2022/03/18 08:57:46;;;;;;;78.70;44.00;;;12.50;44.30;;;;;;4989482;28;20492;-70
2022/03/18 09:00:17;;;;;;;79.07;47.07;;;12.80;46.70;;;;;;4980258;28;20447;-71
2022/03/18 09:02:44;;;;;;;98.87;46.53;;;12.70;44.10;;;;;;4979566;28;20804;-71
2022/03/18 09:05:11;;;;;;;85.87;47.20;;;12.80;42.10;;;;;;4976181;28;20979;-71
2022/03/18 09:07:38;;;;;;;92.00;44.70;;;12.70;43.70;;;;;;4982327;28;20426;-71
2022/03/18 09:10:06;;;;;;;84.53;45.07;;;12.60;42.00;;;;;;4997387;28;20440;-71
2022/03/18 09:12:32;;;;;;;82.37;43.57;;;12.40;43.10;;;;;;4989042;28;20793;-70
2022/03/18 09:14:58;;;;;;;84.03;43.30;;;12.60;42.50;;;;;;4990905;28;20417;-71
2022/03/18 09:17:24;;;;;;;76.93;43.40;;;13.00;43.30;;;;;;4997681;28;20980;-71
2022/03/18 09:19:50;;;;;;;73.33;41.30;;;13.60;41.30;;;;;;4989949;28;20441;-71
2022/03/18 09:22:16;;;;;;;74.33;42.63;;;13.00;41.20;;;;;;4993146;28;20500;-72
2022/03/18 09:24:44;;;;;;;76.20;42.10;;;13.30;41.40;;;;;;4984907;28;20986;-71
2022/03/18 09:27:10;;;;;;;76.83;41.53;;;13.30;40.50;;;;;;4997886;28;20823;-72
2022/03/18 09:29:36;;;;;;;86.07;44.53;;;13.20;39.60;;;;;;4988923;28;20450;-71
2022/03/18 09:32:03;;;;;;;75.67;43.00;;;13.30;38.90;;;;;;4990686;28;20425;-71
2022/03/18 09:34:28;;;;;;;79.43;44.70;;;12.40;41.00;;;;;;4989853;28;20510;-71
2022/03/18 09:36:56;;;;;;;72.20;41.03;;;12.60;41.00;;;;;;4986705;28;21010;-76
2022/03/18 09:39:24;;;;;;;77.80;41.33;;;13.20;39.70;;;;;;4984295;28;20216;-70
2022/03/18 09:41:50;;;;;;;74.20;41.40;;;13.60;38.80;;;;;;4988165;28;20422;-71
2022/03/18 09:44:15;;;;;;;89.27;42.97;;;13.60;39.30;;;;;;4994405;28;20471;-71
2022/03/18 09:46:42;;;;;;;73.20;41.30;;;13.50;38.40;;;;;;4995676;28;20417;-71
2022/03/18 09:49:12;;;;;;;74.50;42.03;;;13.80;36.90;;;;;;4988051;28;20215;-72
2022/03/18 09:51:48;;;;;;;69.80;41.27;;;13.10;40.40;;;;;;4985674;28;20425;-71
2022/03/18 09:54:14;;;;;;;75.77;41.00;;;13.40;40.60;;;;;;4998147;28;20419;-71
2022/03/18 09:56:42;;;;;;;76.73;41.20;;;13.30;37.80;;;;;;4988323;28;20432;-71
2022/03/18 09:59:08;;;;;;;67.70;40.30;;;13.10;37.90;;;;;;4997880;28;20447;-71
2022/03/18 10:01:34;;;;;;;68.20;39.67;;;13.00;38.30;;;;;;4990210;28;20442;-71
2022/03/18 10:04:07;;;;;;;73.03;41.90;;;12.80;37.80;;;;;;4986417;28;20617;-71
2022/03/18 10:06:34;;;;;;;75.03;40.90;;;12.60;39.70;;;;;;4978203;28;20422;-72
2022/03/18 10:09:00;;;;;;;77.73;42.10;;;13.10;38.20;;;;;;4992639;28;20592;-71
2022/03/18 10:11:30;;;;;;;72.43;41.07;;;13.30;37.10;;;;;;4990356;28;20421;-71
2022/03/18 10:14:02;;;;;;;72.83;42.20;;;12.70;37.60;;;;;;4988367;28;21100;-71
2022/03/18 10:16:36;;;;;;;72.60;40.60;;;13.10;38.60;;;;;;4991570;28;20960;-72
2022/03/18 10:19:23;;;;;;;70.70;41.23;;;13.60;37.60;;;;;;4994103;28;20490;-71
2022/03/18 10:21:51;;;;;;;67.10;40.23;;;14.10;36.20;;;;;;4982863;28;20904;-71
2022/03/18 10:24:22;;;;;;;81.13;39.70;;;14.50;34.40;;;;;;5003715;28;20479;-70
2022/03/18 10:26:51;;;;;;;64.93;37.87;;;14.80;33.90;;;;;;4998960;28;20435;-71
2022/03/18 10:29:17;;;;;;;69.03;40.17;;;15.10;33.00;;;;;;4992980;28;20457;-72
2022/03/18 10:31:59;;;;;;;71.63;37.67;;;15.00;32.40;;;;;;4991722;28;20969;-71
2022/03/18 10:37:23;;;;;;;61.50;38.50;;;14.90;33.80;;;;;;4975750;28;20449;-71
2022/03/18 10:39:50;;;;;;;63.30;38.50;;;14.80;33.10;;;;;;4988048;28;20500;-77
2022/03/18 10:42:20;;;;;;;67.20;37.13;;;15.00;32.60;;;;;;4994276;28;20421;-72
2022/03/18 10:44:49;;;;;;;59.20;38.00;;;14.80;33.50;;;;;;4994296;28;20429;-71
2022/03/18 10:47:26;;;;;;;60.73;36.70;;;14.20;35.30;;;;;;4983482;28;20545;-70
2022/03/18 10:50:11;;;;;;;61.47;37.10;;;14.30;32.20;;;;;;4986290;28;20441;-73
2022/03/18 10:52:39;;;;;;;63.20;35.93;;;14.50;32.20;;;;;;4983973;28;20425;-72
2022/03/18 10:55:19;;;;;;;61.60;37.10;;;14.70;32.30;;;;;;4991351;28;20433;-72
2022/03/18 10:58:15;;;;;;;60.87;34.70;;;15.00;31.00;;;;;;4984440;28;20434;-72
2022/03/18 11:00:43;;;;;;;56.67;36.17;;;14.80;30.40;;;;;;5000668;28;20457;-73
2022/03/18 11:03:09;;;;;;;59.03;36.70;;;15.10;29.70;;;;;;4992964;28;20474;-72
2022/03/18 11:05:36;;;;;;;59.60;34.60;;;14.90;30.40;;;;;;4984403;28;20972;-72
2022/03/18 11:08:05;;;;;;;57.17;36.27;;;15.10;30.30;;;;;;4989365;28;20860;-72
2022/03/18 11:13:20;;;;;;;58.20;36.87;;;15.50;28.90;;;;;;4985652;28;20572;-72
2022/03/18 11:15:46;;;;;;;62.13;36.23;;;15.60;28.70;;;;;;4988701;28;20432;-72
2022/03/18 11:18:13;;;;;;;55.17;34.33;;;16.10;27.50;;;;;;4991186;28;20432;-73
2022/03/18 11:20:44;;;;;;;65.07;37.00;;;15.50;28.90;;;;;;4987309;28;20461;-72
2022/03/18 11:23:18;;;;;;;58.37;34.60;;;15.80;28.50;;;;;;4985973;28;20456;-73
2022/03/18 11:25:50;;;;;;;51.47;34.37;;;15.20;29.50;;;;;;4982880;28;20433;-71
2022/03/18 11:28:18;;;;;;;55.70;35.60;;;15.30;30.00;;;;;;4986763;28;20434;-71
2022/03/18 11:30:47;;;;;;;52.97;34.90;;;15.70;28.30;;;;;;4988600;28;20436;-71
2022/03/18 11:33:15;;;;;;;48.87;32.70;;;15.30;29.00;;;;;;4988791;28;20424;-72
2022/03/18 11:36:02;;;;;;;60.03;33.00;;;15.50;28.80;;;;;;4989702;28;20515;-71
2022/03/18 11:38:51;;;;;;;53.90;33.23;;;16.50;27.20;;;;;;4965677;28;20440;-71
2022/03/18 11:41:17;;;;;;;59.77;35.57;;;17.10;27.00;;;;;;4987846;28;20418;-71
2022/03/18 11:43:43;;;;;;;48.27;33.23;;;17.60;25.70;;;;;;4990320;28;20473;-71
2022/03/18 11:46:19;;;;;;;60.23;35.83;;;18.30;25.10;;;;;;4991675;28;20836;-71
2022/03/18 11:48:47;;;;;;;50.83;34.20;;;17.90;26.20;;;;;;4985686;28;20230;-71
2022/03/18 11:51:36;;;;;;;53.33;33.80;;;18.30;24.80;;;;;;4985248;28;20863;-71
2022/03/18 11:54:03;;;;;;;52.73;33.60;;;19.00;25.30;;;;;;5007254;28;20437;-72
2022/03/18 11:56:45;;;;;;;49.73;32.80;;;19.20;25.70;;;;;;4991861;28;20423;-71
2022/03/18 11:59:29;;;;;;;55.83;34.63;;;19.20;24.10;;;;;;4991932;28;20440;-71
2022/03/18 12:02:00;;;;;;;50.70;33.60;;;19.80;22.60;;;;;;4985521;28;20443;-71
2022/03/18 12:04:46;;;;;;;48.30;33.13;;;19.30;23.40;;;;;;4985483;28;20475;-72
2022/03/18 12:07:24;;;;;;;50.70;34.60;;;19.60;22.80;;;;;;5007159;28;20978;-71
2022/03/18 12:09:59;;;;;;;52.03;33.90;;;19.30;23.20;;;;;;4991991;28;20443;-71
2022/03/18 12:12:34;;;;;;;50.17;32.80;;;18.80;22.80;;;;;;4983591;28;20922;-71
2022/03/18 12:15:22;;;;;;;52.90;33.70;;;18.90;25.20;;;;;;4985769;28;20498;-71
2022/03/18 12:17:51;;;;;;;53.27;34.97;;;19.80;22.50;;;;;;4987753;28;20425;-71
2022/03/18 12:20:21;;;;;;;49.27;33.30;;;20.10;22.20;;;;;;4982279;28;20806;-71
2022/03/18 12:22:49;;;;;;;50.10;32.50;;;19.50;22.30;;;;;;4987747;28;20500;-72
2022/03/18 12:25:16;;;;;;;46.70;33.10;;;19.80;22.00;;;;;;4988117;28;20437;-72
2022/03/18 12:27:44;;;;;;;57.20;34.27;;;20.30;21.30;;;;;;4990192;28;20771;-71
2022/03/18 12:30:15;;;;;;;49.90;33.00;;;20.30;21.80;;;;;;4982916;28;20990;-71
2022/03/18 12:32:54;;;;;;;46.73;32.70;;;19.70;21.80;;;;;;4990959;28;20483;-72
2022/03/18 12:35:32;;;;;;;59.03;31.73;;;19.40;21.70;;;;;;4979023;28;20437;-71
2022/03/18 12:38:09;;;;;;;43.47;32.03;;;19.80;23.40;;;;;;4980456;28;20509;-71
2022/03/18 12:40:38;;;;;;;44.37;32.77;;;20.50;21.20;;;;;;4987958;28;20485;-71
2022/03/18 12:43:03;;;;;;;48.80;32.00;;;20.40;20.90;;;;;;4983056;28;20491;-71
2022/03/18 12:45:42;;;;;;;44.30;32.00;;;20.40;20.80;;;;;;4991501;28;20433;-72
2022/03/18 12:48:13;;;;;;;46.03;32.43;;;19.70;21.90;;;;;;4981882;28;20706;-71
2022/03/18 12:50:48;;;;;;;49.73;33.37;;;19.20;22.20;;;;;;4980993;28;20548;-72
2022/03/18 12:53:18;;;;;;;53.30;32.57;;;20.00;22.00;;;;;;4987180;28;20487;-71
2022/03/18 12:55:47;;;;;;;45.50;33.53;;;20.30;21.50;;;;;;4986623;28;20438;-71